Back to Top

Language: 

My Weather Underground Personal Weather Station Historical Data with Graphs...

Delerius Weather Station Historical Data
Daily Summary for April 17, 2017 Units:  English    Metric   Both
« Previous Day
Next Day »
Daily Weekly Monthly Yearly Custom
  High: Low: Average:
Temperature: 54.0 °F 41.4 °F 45.9 °F
Dew Point: 41.6 °F 34.9 °F 38.6 °F
Humidity: 96 % 49 % 77 %
Wind Speed: 11.0 mph 0.0 mph 2.6 mph
Wind Gust: 22.0 mph - -
Wind:- - SSE
Pressure: 30.36 in 30.12 in -
Precipitation: 0.02 in    
Historical Graphs
 
 
Tabular Data for April 17, 2017
Time Temperature Dew Point Pressure Wind Wind Speed Wind Gust Humidity Rainfall Rate (Hourly) solar Conditions
00:04 43.0 °F 41.6 °F 30.12 in NE 3.0 mph 8.0 mph 95 % 0.01 in 0 W/m2
00:09 43.0 °F 41.6 °F 30.12 in NE 4.0 mph 10.0 mph 95 % 0.02 in 0 W/m2
00:10 43.0 °F 41.6 °F 30.12 in NE 4.0 mph 10.0 mph 95 % 0.02 in 0 W/m2
00:15 42.8 °F 41.5 °F 30.13 in NE 4.0 mph 10.0 mph 95 % 0.02 in 0 W/m2
00:20 42.6 °F 41.3 °F 30.13 in NE 4.0 mph 9.0 mph 95 % 0.02 in 0 W/m2
00:25 42.4 °F 41.1 °F 30.13 in ENE 3.0 mph 9.0 mph 95 % 0.02 in 0 W/m2
00:30 42.4 °F 41.1 °F 30.13 in NE 3.0 mph 8.0 mph 95 % 0.02 in 0 W/m2
00:35 42.4 °F 41.1 °F 30.13 in NE 2.0 mph 8.0 mph 95 % 0.01 in 0 W/m2
00:40 42.4 °F 41.1 °F 30.13 in NE 2.0 mph 6.0 mph 95 % 0.02 in 0 W/m2
00:45 42.4 °F 41.1 °F 30.13 in NE 3.0 mph 10.0 mph 95 % 0.02 in 0 W/m2
00:50 42.3 °F 40.9 °F 30.13 in NE 4.0 mph 10.0 mph 95 % 0.02 in 0 W/m2
00:56 42.3 °F 40.9 °F 30.14 in NE 4.0 mph 10.0 mph 95 % 0.02 in 0 W/m2
01:01 42.1 °F 40.8 °F 30.14 in NE 5.0 mph 10.0 mph 95 % 0.02 in 0 W/m2
01:06 41.9 °F 40.6 °F 30.14 in NE 5.0 mph 10.0 mph 95 % 0.02 in 0 W/m2
01:11 41.9 °F 40.6 °F 30.14 in NE 3.0 mph 9.0 mph 95 % 0.01 in 0 W/m2
01:16 41.7 °F 40.4 °F 30.14 in ENE 2.0 mph 6.0 mph 95 % 0.01 in 0 W/m2
01:21 41.7 °F 40.4 °F 30.14 in ENE 2.0 mph 6.0 mph 95 % 0.01 in 0 W/m2
01:26 41.5 °F 40.2 °F 30.14 in NE 2.0 mph 6.0 mph 95 % 0.01 in 0 W/m2
01:31 41.5 °F 40.2 °F 30.14 in NNE 2.0 mph 6.0 mph 95 % 0.01 in 0 W/m2
01:36 41.5 °F 40.2 °F 30.14 in NE 3.0 mph 7.0 mph 95 % 0.01 in 0 W/m2
01:41 41.5 °F 40.2 °F 30.15 in NE 3.0 mph 7.0 mph 95 % 0.00 in 0 W/m2
01:46 41.5 °F 40.2 °F 30.15 in NE 2.0 mph 5.0 mph 95 % 0.00 in 0 W/m2
01:51 41.7 °F 40.7 °F 30.15 in NE 2.0 mph 6.0 mph 96 % 0.00 in 0 W/m2
01:56 41.7 °F 40.4 °F 30.14 in NNE 2.0 mph 6.0 mph 95 % 0.00 in 0 W/m2
02:01 41.7 °F 40.7 °F 30.15 in NNE 2.0 mph 6.0 mph 96 % 0.00 in 0 W/m2
02:06 41.9 °F 40.8 °F 30.14 in NNE 2.0 mph 6.0 mph 96 % 0.00 in 0 W/m2
02:11 42.1 °F 41.0 °F 30.14 in North 1.0 mph 6.0 mph 96 % 0.00 in 0 W/m2
02:16 41.9 °F 40.6 °F 30.14 in North 2.0 mph 6.0 mph 95 % 0.00 in 0 W/m2
02:21 41.7 °F 40.4 °F 30.15 in NNE 3.0 mph 6.0 mph 95 % 0.00 in 0 W/m2
02:26 41.9 °F 40.6 °F 30.14 in North 3.0 mph 8.0 mph 95 % 0.00 in 0 W/m2
02:31 41.9 °F 40.6 °F 30.15 in North 3.0 mph 8.0 mph 95 % 0.00 in 0 W/m2
02:36 41.9 °F 40.6 °F 30.15 in North 3.0 mph 7.0 mph 95 % 0.00 in 0 W/m2
02:37 41.9 °F 40.6 °F 30.15 in North 3.0 mph 7.0 mph 95 % 0.00 in 0 W/m2
02:42 41.9 °F 40.6 °F 30.15 in North 3.0 mph 8.0 mph 95 % 0.00 in 0 W/m2
02:47 41.7 °F 40.4 °F 30.15 in North 3.0 mph 8.0 mph 95 % 0.00 in 0 W/m2
02:52 41.7 °F 40.4 °F 30.15 in North 3.0 mph 6.0 mph 95 % 0.00 in 0 W/m2
02:57 41.7 °F 40.4 °F 30.15 in NNE 2.0 mph 6.0 mph 95 % 0.00 in 0 W/m2
03:02 41.7 °F 40.4 °F 30.15 in NNE 3.0 mph 7.0 mph 95 % 0.00 in 0 W/m2
03:07 41.5 °F 40.2 °F 30.15 in NNE 3.0 mph 7.0 mph 95 % 0.00 in 0 W/m2
03:12 41.5 °F 40.2 °F 30.15 in NNE 3.0 mph 7.0 mph 95 % 0.00 in 0 W/m2
03:17 41.5 °F 40.2 °F 30.15 in NNE 2.0 mph 7.0 mph 95 % 0.00 in 0 W/m2
03:22 41.5 °F 40.2 °F 30.15 in NNE 2.0 mph 7.0 mph 95 % 0.00 in 0 W/m2
03:27 41.5 °F 40.2 °F 30.16 in NNE 1.0 mph 4.0 mph 95 % 0.00 in 0 W/m2
03:32 41.5 °F 40.2 °F 30.16 in NE 1.0 mph 6.0 mph 95 % 0.00 in 0 W/m2
03:37 41.5 °F 40.2 °F 30.16 in NE 2.0 mph 6.0 mph 95 % 0.00 in 0 W/m2
03:42 41.5 °F 40.2 °F 30.16 in NNE 1.0 mph 6.0 mph 95 % 0.00 in 0 W/m2
03:47 41.5 °F 40.2 °F 30.16 in NNE 1.0 mph 6.0 mph 95 % 0.00 in 0 W/m2
03:52 41.5 °F 40.2 °F 30.16 in NNE 1.0 mph 6.0 mph 95 % 0.00 in 0 W/m2
03:57 41.5 °F 40.2 °F 30.15 in NNE 2.0 mph 6.0 mph 95 % 0.00 in 0 W/m2
04:02 41.5 °F 40.2 °F 30.15 in NNE 1.0 mph 5.0 mph 95 % 0.00 in 0 W/m2
04:07 41.5 °F 40.2 °F 30.16 in NNE 1.0 mph 6.0 mph 95 % 0.00 in 0 W/m2
04:12 41.5 °F 40.2 °F 30.16 in NNE 1.0 mph 6.0 mph 95 % 0.00 in 0 W/m2
04:17 41.5 °F 40.2 °F 30.15 in NNE 1.0 mph 4.0 mph 95 % 0.00 in 0 W/m2
04:22 41.5 °F 40.2 °F 30.16 in North 2.0 mph 8.0 mph 95 % 0.00 in 0 W/m2
04:27 41.5 °F 40.2 °F 30.16 in North 3.0 mph 8.0 mph 95 % 0.00 in 0 W/m2
04:32 41.5 °F 40.2 °F 30.16 in North 2.0 mph 7.0 mph 95 % 0.00 in 0 W/m2
04:37 41.5 °F 40.2 °F 30.16 in North 3.0 mph 8.0 mph 95 % 0.00 in 0 W/m2
04:42 41.5 °F 40.2 °F 30.16 in North 3.0 mph 8.0 mph 95 % 0.00 in 0 W/m2
04:47 41.5 °F 40.2 °F 30.16 in North 2.0 mph 6.0 mph 95 % 0.00 in 0 W/m2
04:52 41.5 °F 40.2 °F 30.16 in North 2.0 mph 6.0 mph 95 % 0.00 in 0 W/m2
04:57 41.5 °F 40.2 °F 30.16 in NNW 1.0 mph 5.0 mph 95 % 0.00 in 0 W/m2
05:02 41.5 °F 40.2 °F 30.16 in North 2.0 mph 5.0 mph 95 % 0.00 in 0 W/m2
05:07 41.5 °F 40.2 °F 30.16 in North 2.0 mph 5.0 mph 95 % 0.00 in 0 W/m2
05:12 41.5 °F 40.2 °F 30.16 in North 1.0 mph 5.0 mph 95 % 0.00 in 0 W/m2
05:17 41.5 °F 40.2 °F 30.16 in North 1.0 mph 5.0 mph 95 % 0.00 in 0 W/m2
05:22 41.5 °F 40.2 °F 30.17 in NNW 2.0 mph 5.0 mph 95 % 0.00 in 0 W/m2
05:27 41.5 °F 40.2 °F 30.17 in NNW 1.0 mph 5.0 mph 95 % 0.00 in 0 W/m2
05:32 41.5 °F 40.2 °F 30.17 in NNW 1.0 mph 6.0 mph 95 % 0.00 in 0 W/m2
05:37 41.4 °F 40.0 °F 30.17 in NNW 3.0 mph 8.0 mph 95 % 0.00 in 0 W/m2
05:42 41.4 °F 40.0 °F 30.17 in NNW 3.0 mph 8.0 mph 95 % 0.00 in 0 W/m2
05:47 41.4 °F 40.0 °F 30.17 in NNW 3.0 mph 7.0 mph 95 % 0.00 in 0 W/m2
05:52 41.4 °F 40.0 °F 30.17 in NNW 3.0 mph 7.0 mph 95 % 0.00 in 0 W/m2
05:57 41.4 °F 40.0 °F 30.18 in NNW 2.0 mph 5.0 mph 95 % 0.00 in 5 W/m2
06:02 41.4 °F 40.0 °F 30.18 in NNW 2.0 mph 6.0 mph 95 % 0.00 in 5 W/m2
06:07 41.4 °F 40.0 °F 30.18 in NNW 3.0 mph 8.0 mph 95 % 0.00 in 5 W/m2
06:12 41.4 °F 40.0 °F 30.18 in NNW 3.0 mph 8.0 mph 95 % 0.00 in 5 W/m2
06:17 41.4 °F 40.0 °F 30.18 in North 3.0 mph 8.0 mph 95 % 0.00 in 7 W/m2
06:22 41.4 °F 40.0 °F 30.18 in North 4.0 mph 9.0 mph 95 % 0.00 in 11 W/m2
06:30 41.5 °F 40.2 °F 30.18 in North 3.0 mph 7.0 mph 95 % 0.00 in 14 W/m2
06:35 41.5 °F 40.2 °F 30.19 in North 3.0 mph 7.0 mph 95 % 0.00 in 18 W/m2
06:40 41.5 °F 40.2 °F 30.19 in North 4.0 mph 8.0 mph 95 % 0.00 in 21 W/m2
06:45 41.5 °F 40.2 °F 30.19 in North 4.0 mph 8.0 mph 95 % 0.00 in 23 W/m2
06:50 41.5 °F 40.2 °F 30.19 in North 3.0 mph 7.0 mph 95 % 0.00 in 25 W/m2
06:55 41.5 °F 40.2 °F 30.19 in NNE 3.0 mph 7.0 mph 95 % 0.00 in 25 W/m2
07:00 41.5 °F 40.2 °F 30.19 in NNE 2.0 mph 6.0 mph 95 % 0.00 in 23 W/m2
07:05 41.5 °F 40.2 °F 30.20 in NNE 1.0 mph 5.0 mph 95 % 0.00 in 21 W/m2
07:10 41.5 °F 40.2 °F 30.20 in NNE 2.0 mph 7.0 mph 95 % 0.00 in 23 W/m2
07:15 41.5 °F 40.2 °F 30.20 in NNE 3.0 mph 7.0 mph 95 % 0.00 in 26 W/m2
07:20 41.5 °F 40.2 °F 30.20 in NNE 2.0 mph 7.0 mph 95 % 0.00 in 30 W/m2
07:25 41.5 °F 40.2 °F 30.20 in NNE 2.0 mph 7.0 mph 95 % 0.00 in 37 W/m2
07:30 41.7 °F 40.4 °F 30.21 in NE 2.0 mph 6.0 mph 95 % 0.00 in 46 W/m2
07:35 41.7 °F 40.4 °F 30.21 in NE 2.0 mph 7.0 mph 95 % 0.00 in 56 W/m2
07:41 41.7 °F 40.4 °F 30.21 in NE 2.0 mph 7.0 mph 95 % 0.00 in 63 W/m2
07:46 41.9 °F 40.6 °F 30.21 in NE 2.0 mph 6.0 mph 95 % 0.00 in 70 W/m2
07:51 41.9 °F 40.6 °F 30.21 in NNE 1.0 mph 5.0 mph 95 % 0.00 in 67 W/m2
07:56 42.1 °F 40.8 °F 30.22 in NNE 2.0 mph 6.0 mph 95 % 0.00 in 81 W/m2
08:01 42.1 °F 40.8 °F 30.22 in NNE 2.0 mph 6.0 mph 95 % 0.00 in 86 W/m2
08:06 42.1 °F 40.8 °F 30.22 in NNE 1.0 mph 6.0 mph 95 % 0.00 in 109 W/m2
08:11 42.3 °F 40.9 °F 30.22 in NNE 1.0 mph 7.0 mph 95 % 0.00 in 95 W/m2
08:16 42.3 °F 40.7 °F 30.22 in NNE 1.0 mph 7.0 mph 94 % 0.00 in 105 W/m2
08:21 42.4 °F 40.8 °F 30.22 in NNE 1.0 mph 4.0 mph 94 % 0.00 in 118 W/m2
08:26 42.6 °F 41.0 °F 30.23 in Calm   1.0 mph 94 % 0.00 in 105 W/m2
08:31 42.6 °F 40.7 °F 30.23 in NNE 1.0 mph 6.0 mph 93 % 0.00 in 123 W/m2
08:36 42.6 °F 40.7 °F 30.23 in NNE 1.0 mph 6.0 mph 93 % 0.00 in 111 W/m2
08:41 42.4 °F 40.3 °F 30.23 in ENE 2.0 mph 7.0 mph 92 % 0.00 in 135 W/m2
08:46 42.6 °F 40.2 °F 30.23 in ENE 2.0 mph 7.0 mph 91 % 0.00 in 151 W/m2
08:51 42.8 °F 40.1 °F 30.23 in ENE 2.0 mph 7.0 mph 90 % 0.00 in 144 W/m2
08:56 43.0 °F 40.2 °F 30.23 in NE 3.0 mph 7.0 mph 90 % 0.00 in 118 W/m2
09:01 43.0 °F 40.0 °F 30.23 in NE 2.0 mph 6.0 mph 89 % 0.00 in 146 W/m2
09:06 43.2 °F 39.8 °F 30.23 in NE 3.0 mph 8.0 mph 88 % 0.00 in 137 W/m2
09:11 43.2 °F 39.8 °F 30.23 in ENE 2.0 mph 8.0 mph 88 % 0.00 in 163 W/m2
09:16 43.3 °F 40.0 °F 30.23 in East 1.0 mph 5.0 mph 88 % 0.00 in 156 W/m2
09:21 43.5 °F 39.9 °F 30.23 in East 1.0 mph 5.0 mph 87 % 0.00 in 165 W/m2
09:26 43.9 °F 40.3 °F 30.23 in East 1.0 mph 4.0 mph 87 % 0.00 in 158 W/m2
09:31 44.1 °F 40.4 °F 30.23 in Calm   2.0 mph 87 % 0.00 in 158 W/m2
09:36 44.1 °F 40.1 °F 30.23 in Calm   4.0 mph 86 % 0.00 in 176 W/m2
09:41 44.2 °F 39.7 °F 30.23 in ENE 1.0 mph 4.0 mph 84 % 0.00 in 211 W/m2
09:46 44.4 °F 40.2 °F 30.23 in ENE 1.0 mph 5.0 mph 85 % 0.00 in 148 W/m2
09:51 44.6 °F 40.1 °F 30.23 in ENE 1.0 mph 5.0 mph 84 % 0.00 in 116 W/m2
09:56 44.4 °F 39.0 °F 30.23 in East 2.0 mph 7.0 mph 81 % 0.00 in 120 W/m2
10:01 44.4 °F 38.6 °F 30.24 in ENE 3.0 mph 8.0 mph 80 % 0.00 in 121 W/m2
10:06 44.2 °F 37.5 °F 30.24 in NE 4.0 mph 8.0 mph 77 % 0.00 in 121 W/m2
10:11 44.4 °F 37.7 °F 30.24 in NE 3.0 mph 8.0 mph 77 % 0.00 in 153 W/m2
10:16 44.4 °F 37.3 °F 30.24 in NE 2.0 mph 6.0 mph 76 % 0.00 in 155 W/m2
10:21 44.6 °F 37.5 °F 30.24 in ENE 3.0 mph 8.0 mph 76 % 0.00 in 178 W/m2
10:26 44.8 °F 37.7 °F 30.24 in ENE 2.0 mph 8.0 mph 76 % 0.00 in 199 W/m2
10:31 45.0 °F 37.5 °F 30.24 in NE 2.0 mph 6.0 mph 75 % 0.00 in 183 W/m2
10:36 45.0 °F 37.2 °F 30.24 in NE 3.0 mph 7.0 mph 74 % 0.00 in 183 W/m2
10:41 45.1 °F 37.7 °F 30.24 in ENE 3.0 mph 7.0 mph 75 % 0.00 in 214 W/m2
10:46 45.3 °F 37.9 °F 30.24 in East 2.0 mph 6.0 mph 75 % 0.00 in 227 W/m2
10:52 45.3 °F 37.2 °F 30.24 in ENE 3.0 mph 7.0 mph 73 % 0.00 in 223 W/m2
10:57 45.5 °F 37.3 °F 30.24 in NE 3.0 mph 7.0 mph 73 % 0.00 in 229 W/m2
11:02 45.7 °F 37.5 °F 30.24 in NE 2.0 mph 5.0 mph 73 % 0.00 in 207 W/m2
11:07 45.9 °F 37.7 °F 30.25 in ENE 3.0 mph 9.0 mph 73 % 0.00 in 200 W/m2
11:12 45.9 °F 37.3 °F 30.25 in ENE 4.0 mph 9.0 mph 72 % 0.00 in 200 W/m2
11:17 45.7 °F 37.5 °F 30.25 in ENE 4.0 mph 9.0 mph 73 % 0.00 in 195 W/m2
11:22 45.9 °F 38.0 °F 30.25 in ENE 3.0 mph 8.0 mph 74 % 0.00 in 207 W/m2
11:27 45.9 °F 37.7 °F 30.25 in ENE 3.0 mph 8.0 mph 73 % 0.00 in 250 W/m2
11:32 46.0 °F 37.5 °F 30.25 in ENE 3.0 mph 7.0 mph 72 % 0.00 in 271 W/m2
11:37 46.0 °F 37.5 °F 30.25 in ENE 3.0 mph 7.0 mph 72 % 0.00 in 250 W/m2
11:42 46.2 °F 37.7 °F 30.25 in East 4.0 mph 8.0 mph 72 % 0.00 in 239 W/m2
11:47 46.2 °F 37.3 °F 30.25 in ENE 5.0 mph 10.0 mph 71 % 0.00 in 229 W/m2
11:52 46.0 °F 37.2 °F 30.25 in ENE 4.0 mph 10.0 mph 71 % 0.00 in 197 W/m2
11:57 46.2 °F 37.7 °F 30.25 in ENE 2.0 mph 6.0 mph 72 % 0.00 in 185 W/m2
12:02 46.2 °F 37.0 °F 30.25 in East 2.0 mph 7.0 mph 70 % 0.00 in 199 W/m2
12:07 46.2 °F 37.3 °F 30.25 in ENE 2.0 mph 7.0 mph 71 % 0.00 in 216 W/m2
12:12 46.6 °F 38.0 °F 30.25 in ENE 1.0 mph 5.0 mph 72 % 0.00 in 262 W/m2
12:17 46.8 °F 36.8 °F 30.25 in NE 2.0 mph 6.0 mph 68 % 0.00 in 297 W/m2
12:22 46.9 °F 36.5 °F 30.26 in NNE 2.0 mph 6.0 mph 67 % 0.00 in 281 W/m2
12:27 47.3 °F 37.3 °F 30.26 in NE 2.0 mph 6.0 mph 68 % 0.00 in 264 W/m2
12:32 47.3 °F 36.9 °F 30.26 in ENE 2.0 mph 6.0 mph 67 % 0.00 in 269 W/m2
12:37 47.5 °F 37.1 °F 30.25 in East 2.0 mph 6.0 mph 67 % 0.00 in 302 W/m2
12:42 47.5 °F 36.7 °F 30.26 in East 2.0 mph 6.0 mph 66 % 0.00 in 366 W/m2
12:47 47.5 °F 36.3 °F 30.25 in ENE 2.0 mph 6.0 mph 65 % 0.00 in 431 W/m2
12:52 47.8 °F 36.6 °F 30.26 in North 2.0 mph 6.0 mph 65 % 0.00 in 401 W/m2
12:57 48.0 °F 36.4 °F 30.25 in NNE 3.0 mph 7.0 mph 64 % 0.00 in 338 W/m2
13:02 48.0 °F 36.4 °F 30.25 in NE 3.0 mph 7.0 mph 64 % 0.00 in 330 W/m2
13:07 47.8 °F 36.2 °F 30.25 in ENE 2.0 mph 6.0 mph 64 % 0.00 in 336 W/m2
13:12 48.0 °F 37.2 °F 30.26 in ENE 1.0 mph 6.0 mph 66 % 0.00 in 304 W/m2
13:17 48.2 °F 37.0 °F 30.26 in NE 3.0 mph 7.0 mph 65 % 0.00 in 295 W/m2
13:18 48.2 °F 37.4 °F 30.26 in NE 3.0 mph 7.0 mph 66 % 0.00 in 297 W/m2
13:23 48.4 °F 37.2 °F 30.26 in ENE 3.0 mph 8.0 mph 65 % 0.00 in 302 W/m2
13:28 48.0 °F 36.0 °F 30.26 in ENE 2.0 mph 8.0 mph 63 % 0.00 in 304 W/m2
13:33 48.2 °F 36.2 °F 30.26 in NE 2.0 mph 6.0 mph 63 % 0.00 in 299 W/m2
13:38 48.4 °F 36.4 °F 30.26 in NE 1.0 mph 6.0 mph 63 % 0.00 in 269 W/m2
13:43 48.7 °F 37.1 °F 30.26 in NNW 1.0 mph 6.0 mph 64 % 0.00 in 257 W/m2
13:49 48.9 °F 36.9 °F 30.26 in North 2.0 mph 7.0 mph 63 % 0.00 in 265 W/m2
13:54 49.1 °F 36.6 °F 30.26 in NNW 4.0 mph 8.0 mph 62 % 0.00 in 251 W/m2
13:59 49.3 °F 36.8 °F 30.26 in NW 2.0 mph 8.0 mph 62 % 0.00 in 265 W/m2
14:04 49.6 °F 36.7 °F 30.26 in NNW 1.0 mph 7.0 mph 61 % 0.00 in 578 W/m2
14:09 49.8 °F 36.5 °F 30.26 in NNW 2.0 mph 7.0 mph 60 % 0.00 in 888 W/m2
14:14 50.5 °F 38.0 °F 30.26 in West 2.0 mph 7.0 mph 62 % 0.00 in 939 W/m2
14:19 51.1 °F 37.7 °F 30.26 in West 4.0 mph 10.0 mph 60 % 0.00 in 881 W/m2
14:24 51.6 °F 38.2 °F 30.26 in West 5.0 mph 10.0 mph 60 % 0.00 in 1083 W/m2
14:29 52.3 °F 38.4 °F 30.26 in West 6.0 mph 11.0 mph 59 % 0.00 in 1025 W/m2
14:34 52.7 °F 37.4 °F 30.26 in WNW 7.0 mph 12.0 mph 56 % 0.00 in 526 W/m2
14:39 52.9 °F 37.6 °F 30.26 in WNW 7.0 mph 12.0 mph 56 % 0.00 in 1076 W/m2
14:44 53.4 °F 37.6 °F 30.26 in WNW 7.0 mph 11.0 mph 55 % 0.00 in 1063 W/m2
14:49 53.2 °F 37.0 °F 30.26 in West 7.0 mph 13.0 mph 54 % 0.00 in 519 W/m2
14:54 53.2 °F 37.0 °F 30.26 in West 7.0 mph 13.0 mph 54 % 0.00 in 1049 W/m2
14:59 53.2 °F 37.5 °F 30.26 in WSW 6.0 mph 12.0 mph 55 % 0.00 in 425 W/m2
15:04 52.9 °F 37.6 °F 30.26 in WSW 6.0 mph 11.0 mph 56 % 0.00 in 394 W/m2
15:09 53.1 °F 37.3 °F 30.26 in West 5.0 mph 11.0 mph 55 % 0.00 in 237 W/m2
15:14 52.9 °F 37.1 °F 30.26 in WNW 4.0 mph 9.0 mph 55 % 0.00 in 185 W/m2
15:19 52.5 °F 36.8 °F 30.26 in WNW 5.0 mph 11.0 mph 55 % 0.00 in 183 W/m2
15:24 52.2 °F 36.9 °F 30.26 in WNW 6.0 mph 11.0 mph 56 % 0.00 in 200 W/m2
15:29 51.8 °F 37.0 °F 30.26 in NW 6.0 mph 10.0 mph 57 % 0.00 in 227 W/m2
15:34 51.4 °F 36.3 °F 30.26 in NNW 4.0 mph 10.0 mph 56 % 0.00 in 237 W/m2
15:39 51.1 °F 36.4 °F 30.26 in NNW 3.0 mph 7.0 mph 57 % 0.00 in 248 W/m2
15:44 51.3 °F 36.1 °F 30.26 in NW 3.0 mph 7.0 mph 56 % 0.00 in 244 W/m2
15:46 51.3 °F 36.5 °F 30.26 in NW 3.0 mph 7.0 mph 57 % 0.00 in 244 W/m2
15:51 51.3 °F 36.5 °F 30.26 in NW 4.0 mph 8.0 mph 57 % 0.00 in 234 W/m2
15:56 51.3 °F 36.5 °F 30.26 in NW 4.0 mph 8.0 mph 57 % 0.00 in 220 W/m2
16:01 51.3 °F 36.1 °F 30.26 in NW 3.0 mph 8.0 mph 56 % 0.00 in 218 W/m2
16:06 51.3 °F 36.5 °F 30.27 in NW 4.0 mph 8.0 mph 57 % 0.00 in 225 W/m2
16:11 51.4 °F 36.7 °F 30.26 in NW 3.0 mph 8.0 mph 57 % 0.00 in 216 W/m2
16:16 51.4 °F 36.7 °F 30.26 in WNW 4.0 mph 9.0 mph 57 % 0.00 in 213 W/m2
16:21 51.4 °F 36.7 °F 30.26 in WNW 5.0 mph 9.0 mph 57 % 0.00 in 216 W/m2
16:26 51.4 °F 35.8 °F 30.26 in WNW 5.0 mph 9.0 mph 55 % 0.00 in 218 W/m2
16:31 51.3 °F 37.0 °F 30.26 in WNW 3.0 mph 8.0 mph 58 % 0.00 in 246 W/m2
16:37 51.3 °F 36.5 °F 30.26 in WNW 3.0 mph 8.0 mph 57 % 0.00 in 195 W/m2
16:42 51.1 °F 36.8 °F 30.26 in West 3.0 mph 7.0 mph 58 % 0.00 in 171 W/m2
16:47 51.3 °F 37.4 °F 30.26 in WNW 2.0 mph 6.0 mph 59 % 0.00 in 202 W/m2
16:52 51.3 °F 37.0 °F 30.26 in NW 2.0 mph 6.0 mph 58 % 0.00 in 241 W/m2
16:57 51.4 °F 37.1 °F 30.26 in WNW 4.0 mph 10.0 mph 58 % 0.00 in 218 W/m2
17:02 51.6 °F 37.3 °F 30.26 in WNW 5.0 mph 10.0 mph 58 % 0.00 in 461 W/m2
17:07 51.6 °F 36.9 °F 30.26 in WNW 4.0 mph 10.0 mph 57 % 0.00 in 429 W/m2
17:12 52.0 °F 36.8 °F 30.26 in West 4.0 mph 6.0 mph 56 % 0.00 in 413 W/m2
17:17 52.2 °F 36.5 °F 30.25 in West 2.0 mph 6.0 mph 55 % 0.00 in 381 W/m2
17:22 52.7 °F 37.0 °F 30.26 in West 1.0 mph 5.0 mph 55 % 0.00 in 387 W/m2
17:27 53.1 °F 36.4 °F 30.26 in West 2.0 mph 6.0 mph 53 % 0.00 in 371 W/m2
17:32 53.4 °F 36.2 °F 30.26 in WNW 2.0 mph 6.0 mph 52 % 0.00 in 352 W/m2
17:37 53.6 °F 36.9 °F 30.26 in WNW 2.0 mph 6.0 mph 53 % 0.00 in 346 W/m2
17:42 53.8 °F 36.6 °F 30.26 in WNW 3.0 mph 8.0 mph 52 % 0.00 in 362 W/m2
17:47 54.0 °F 35.7 °F 30.26 in NW 3.0 mph 8.0 mph 50 % 0.00 in 411 W/m2
17:49 54.0 °F 36.2 °F 30.26 in NW 4.0 mph 8.0 mph 51 % 0.00 in 172 W/m2
17:54 53.6 °F 34.9 °F 30.26 in NNW 4.0 mph 9.0 mph 49 % 0.00 in 123 W/m2
17:59 52.9 °F 35.2 °F 30.26 in NNW 4.0 mph 9.0 mph 51 % 0.00 in 109 W/m2
18:04 52.5 °F 36.3 °F 30.26 in NW 2.0 mph 7.0 mph 54 % 0.00 in 105 W/m2
18:09 52.3 °F 36.2 °F 30.26 in NW 2.0 mph 7.0 mph 54 % 0.00 in 97 W/m2
18:14 52.2 °F 36.5 °F 30.26 in NW 2.0 mph 7.0 mph 55 % 0.00 in 81 W/m2
18:24 52.0 °F 36.3 °F 30.26 in NW 2.0 mph 6.0 mph 55 % 0.00 in 56 W/m2
18:29 51.6 °F 36.4 °F 30.26 in NW 3.0 mph 6.0 mph 56 % 0.00 in 44 W/m2
18:34 51.3 °F 35.6 °F 30.26 in WNW 2.0 mph 6.0 mph 55 % 0.00 in 39 W/m2
18:39 50.9 °F 35.7 °F 30.27 in NNW 2.0 mph 6.0 mph 56 % 0.00 in 28 W/m2
18:44 50.5 °F 35.9 °F 30.27 in North 1.0 mph 6.0 mph 57 % 0.00 in 37 W/m2
18:49 50.5 °F 35.4 °F 30.26 in Calm   2.0 mph 56 % 0.00 in 40 W/m2
18:54 50.4 °F 35.7 °F 30.26 in North 1.0 mph 4.0 mph 57 % 0.00 in 35 W/m2
18:59 50.2 °F 36.0 °F 30.26 in North 1.0 mph 4.0 mph 58 % 0.00 in 32 W/m2
19:04 50.2 °F 36.0 °F 30.27 in North 1.0 mph 5.0 mph 58 % 0.00 in 26 W/m2
19:09 50.0 °F 35.4 °F 30.27 in NNE 2.0 mph 6.0 mph 57 % 0.00 in 23 W/m2
19:14 49.8 °F 35.6 °F 30.27 in NE 2.0 mph 6.0 mph 58 % 0.00 in 21 W/m2
19:19 49.6 °F 35.5 °F 30.27 in NE 2.0 mph 6.0 mph 58 % 0.00 in 18 W/m2
19:24 49.5 °F 35.3 °F 30.27 in NE 1.0 mph 6.0 mph 58 % 0.00 in 14 W/m2
19:29 49.5 °F 35.7 °F 30.27 in Calm   3.0 mph 59 % 0.00 in 9 W/m2
19:34 49.3 °F 35.5 °F 30.28 in Calm   2.0 mph 59 % 0.00 in 7 W/m2
19:39 49.3 °F 36.0 °F 30.28 in Calm   3.0 mph 60 % 0.00 in 7 W/m2
19:44 48.9 °F 35.2 °F 30.28 in NE 2.0 mph 7.0 mph 59 % 0.00 in 5 W/m2
19:49 48.9 °F 36.1 °F 30.28 in NE 2.0 mph 7.0 mph 61 % 0.00 in 0 W/m2
19:54 48.7 °F 35.5 °F 30.28 in NE 1.0 mph 4.0 mph 60 % 0.00 in 0 W/m2
19:59 48.7 °F 35.9 °F 30.28 in Calm   3.0 mph 61 % 0.00 in 0 W/m2
20:04 48.6 °F 36.1 °F 30.28 in Calm   2.0 mph 62 % 0.00 in 0 W/m2
20:09 48.6 °F 35.7 °F 30.28 in Calm   2.0 mph 61 % 0.00 in 0 W/m2
20:14 48.4 °F 35.5 °F 30.29 in NE 1.0 mph 4.0 mph 61 % 0.00 in 0 W/m2
20:19 48.4 °F 36.0 °F 30.29 in NE 1.0 mph 4.0 mph 62 % 0.00 in 0 W/m2
20:30 48.4 °F 36.4 °F 30.29 in ENE 1.0 mph 6.0 mph 63 % 0.00 in 0 W/m2
20:35 48.0 °F 36.8 °F 30.29 in ENE 2.0 mph 6.0 mph 65 % 0.00 in 0 W/m2
20:40 47.8 °F 37.0 °F 30.29 in ENE 2.0 mph 6.0 mph 66 % 0.00 in 0 W/m2
20:45 47.7 °F 37.2 °F 30.30 in East 1.0 mph 5.0 mph 67 % 0.00 in 0 W/m2
20:50 47.5 °F 37.8 °F 30.30 in East 1.0 mph 5.0 mph 69 % 0.00 in 0 W/m2
20:55 47.5 °F 37.8 °F 30.30 in East 1.0 mph 5.0 mph 69 % 0.00 in 0 W/m2
21:00 47.3 °F 38.0 °F 30.31 in ESE 1.0 mph 6.0 mph 70 % 0.00 in 0 W/m2
21:05 47.1 °F 38.2 °F 30.31 in ESE 1.0 mph 6.0 mph 71 % 0.00 in 0 W/m2
21:10 47.1 °F 38.6 °F 30.31 in Calm   4.0 mph 72 % 0.00 in 0 W/m2
21:15 46.9 °F 38.4 °F 30.31 in Calm     72 % 0.00 in 0 W/m2
21:20 46.9 °F 38.7 °F 30.31 in Calm     73 % 0.00 in 0 W/m2
21:25 46.8 °F 38.6 °F 30.31 in Calm     73 % 0.00 in 0 W/m2
21:30 46.8 °F 38.6 °F 30.31 in Calm     73 % 0.00 in 0 W/m2
21:35 46.6 °F 38.4 °F 30.31 in Calm     73 % 0.00 in 0 W/m2
21:40 46.6 °F 38.7 °F 30.31 in Calm     74 % 0.00 in 0 W/m2
21:45 46.4 °F 38.6 °F 30.32 in Calm   3.0 mph 74 % 0.00 in 0 W/m2
21:50 46.2 °F 38.7 °F 30.32 in SE 1.0 mph 3.0 mph 75 % 0.00 in 0 W/m2
21:55 46.2 °F 39.1 °F 30.32 in Calm   2.0 mph 76 % 0.00 in 0 W/m2
22:00 46.2 °F 39.1 °F 30.32 in Calm   2.0 mph 76 % 0.00 in 0 W/m2
22:05 46.0 °F 38.9 °F 30.32 in NW 2.0 mph 7.0 mph 76 % 0.00 in 0 W/m2
22:10 46.2 °F 39.1 °F 30.32 in NW 3.0 mph 7.0 mph 76 % 0.00 in 0 W/m2
22:15 46.2 °F 39.1 °F 30.32 in NW 2.0 mph 6.0 mph 76 % 0.00 in 0 W/m2
22:20 46.0 °F 39.2 °F 30.32 in NW 2.0 mph 5.0 mph 77 % 0.00 in 0 W/m2
22:25 46.0 °F 39.2 °F 30.32 in NW 2.0 mph 5.0 mph 77 % 0.00 in 0 W/m2
22:30 46.0 °F 39.2 °F 30.32 in NW 2.0 mph 6.0 mph 77 % 0.00 in 0 W/m2
22:35 46.0 °F 39.2 °F 30.32 in NW 2.0 mph 6.0 mph 77 % 0.00 in 0 W/m2
22:40 46.0 °F 39.2 °F 30.33 in NNW 2.0 mph 5.0 mph 77 % 0.00 in 0 W/m2
22:45 46.0 °F 39.6 °F 30.33 in NNW 3.0 mph 7.0 mph 78 % 0.00 in 0 W/m2
22:50 45.9 °F 39.4 °F 30.33 in NNW 3.0 mph 7.0 mph 78 % 0.00 in 0 W/m2
22:55 45.9 °F 39.7 °F 30.33 in NW 4.0 mph 9.0 mph 79 % 0.00 in 0 W/m2
23:00 45.9 °F 39.7 °F 30.33 in NNW 5.0 mph 11.0 mph 79 % 0.00 in 0 W/m2
23:05 45.9 °F 39.7 °F 30.33 in NNW 6.0 mph 11.0 mph 79 % 0.00 in 0 W/m2
23:10 45.7 °F 39.9 °F 30.34 in NNW 6.0 mph 10.0 mph 80 % 0.00 in 0 W/m2
23:16 45.7 °F 39.9 °F 30.34 in North 6.0 mph 10.0 mph 80 % 0.00 in 0 W/m2
23:21 45.7 °F 39.9 °F 30.34 in North 5.0 mph 10.0 mph 80 % 0.00 in 0 W/m2
23:26 45.5 °F 39.7 °F 30.34 in North 4.0 mph 10.0 mph 80 % 0.00 in 0 W/m2
23:31 45.5 °F 39.4 °F 30.35 in North 6.0 mph 19.0 mph 79 % 0.00 in 0 W/m2
23:36 45.1 °F 38.7 °F 30.35 in North 10.0 mph 22.0 mph 78 % 0.00 in 0 W/m2
23:41 44.6 °F 38.5 °F 30.36 in North 11.0 mph 22.0 mph 79 % 0.00 in 0 W/m2
23:46 44.2 °F 38.8 °F 30.36 in North 10.0 mph 20.0 mph 81 % 0.00 in 0 W/m2
23:51 44.1 °F 38.6 °F 30.36 in North 8.0 mph 18.0 mph 81 % 0.00 in 0 W/m2
23:56 43.9 °F 38.7 °F 30.36 in North 8.0 mph 16.0 mph 82 % 0.00 in 0 W/m2
Delerius-Weather
Compliments of Weather Underground - 2.25 mb

Data updates at regular intervals.